createdAt,value
2022-09-06T00:00:28.795Z,100880.00
2022-09-06T00:02:57.687Z,100882.00
2022-09-06T00:05:25.672Z,100878.00
2022-09-06T00:07:53.418Z,100874.00
2022-09-06T00:10:21.171Z,100868.00
2022-09-06T00:12:49.005Z,100874.00
2022-09-06T00:15:16.874Z,100877.00
2022-09-06T00:17:47.465Z,100872.00
2022-09-06T00:20:15.353Z,100882.00
2022-09-06T00:22:43.271Z,100878.00
2022-09-06T00:25:11.636Z,100862.00
2022-09-06T00:27:39.412Z,100871.00
2022-09-06T00:30:07.919Z,100867.00
2022-09-06T00:32:35.866Z,100859.00
2022-09-06T00:35:04.081Z,100859.00
2022-09-06T00:37:31.841Z,100861.00
2022-09-06T00:39:59.643Z,100862.00
2022-09-06T00:42:27.482Z,100861.00
2022-09-06T00:44:55.157Z,100863.00
2022-09-06T00:47:23.036Z,100869.00
2022-09-06T00:49:54.404Z,100860.00
2022-09-06T00:52:22.727Z,100861.00
2022-09-06T00:54:51.251Z,100862.00
2022-09-06T00:57:19.455Z,100859.00
2022-09-06T00:59:47.965Z,100860.00
2022-09-06T01:02:15.894Z,100858.00
2022-09-06T01:04:44.678Z,100865.00
2022-09-06T01:07:34.541Z,100856.00
2022-09-06T01:10:27.925Z,100861.00
2022-09-06T01:13:16.186Z,100861.00
2022-09-06T01:15:59.224Z,100862.00
2022-09-06T01:18:38.879Z,100862.00
2022-09-06T01:21:37.090Z,100858.00
2022-09-06T01:24:44.027Z,100856.00
2022-09-06T01:27:40.423Z,100855.00
2022-09-06T01:30:13.727Z,100855.00
2022-09-06T01:32:42.963Z,100844.00
2022-09-06T01:35:30.756Z,100847.00
2022-09-06T01:37:59.973Z,100839.00
2022-09-06T01:40:28.668Z,100824.00
2022-09-06T01:42:57.914Z,100820.00
2022-09-06T01:45:48.776Z,100816.00
2022-09-06T01:48:35.164Z,100815.00
2022-09-06T01:51:08.373Z,100806.00
2022-09-06T01:54:03.134Z,100810.00
2022-09-06T01:56:31.363Z,100803.00
2022-09-06T01:59:46.844Z,100803.00
2022-09-06T02:02:54.924Z,100805.00
2022-09-06T02:05:24.799Z,100804.00
2022-09-06T02:07:57.002Z,100808.00
2022-09-06T02:10:38.561Z,100802.00
2022-09-06T02:13:07.808Z,100809.00
2022-09-06T02:15:40.079Z,100803.00
2022-09-06T02:18:13.548Z,100807.00
2022-09-06T02:20:50.599Z,100797.00
2022-09-06T02:23:21.389Z,100802.00
2022-09-06T02:25:56.015Z,100803.00
2022-09-06T02:28:25.159Z,100801.00
2022-09-06T02:31:01.670Z,100799.00
2022-09-06T02:33:32.359Z,100789.00
2022-09-06T02:36:06.222Z,100784.00
2022-09-06T02:38:36.016Z,100791.00
2022-09-06T02:41:04.856Z,100784.00
2022-09-06T02:43:32.647Z,100786.00
2022-09-06T02:46:00.751Z,100788.00
2022-09-06T02:48:28.930Z,100788.00
2022-09-06T02:50:56.907Z,100792.00
2022-09-06T02:53:25.046Z,100787.00
2022-09-06T02:55:53.001Z,100784.00
2022-09-06T02:58:21.109Z,100781.00
2022-09-06T03:00:50.073Z,100781.00
2022-09-06T03:03:18.185Z,100775.00
2022-09-06T03:05:52.994Z,100765.00
2022-09-06T03:08:22.140Z,100768.00
2022-09-06T03:10:54.795Z,100761.00
2022-09-06T03:13:23.027Z,100767.00
2022-09-06T03:15:52.036Z,100761.00
2022-09-06T03:18:20.034Z,100761.00
2022-09-06T03:20:50.698Z,100759.00
2022-09-06T03:23:23.875Z,100760.00
2022-09-06T03:25:52.311Z,100769.00
2022-09-06T03:28:21.636Z,100768.00
2022-09-06T03:30:51.779Z,100768.00
2022-09-06T03:33:20.906Z,100762.00
2022-09-06T03:36:02.762Z,100765.00
2022-09-06T03:38:31.343Z,100758.00
2022-09-06T03:40:59.272Z,100759.00
2022-09-06T03:43:28.081Z,100761.00
2022-09-06T03:45:59.279Z,100769.00
2022-09-06T03:48:29.452Z,100766.00
2022-09-06T03:51:01.518Z,100769.00
2022-09-06T03:53:30.804Z,100777.00
2022-09-06T03:55:59.152Z,100776.00
2022-09-06T03:58:31.000Z,100784.00
2022-09-06T04:01:07.019Z,100780.00
2022-09-06T04:03:35.340Z,100781.00
2022-09-06T04:06:03.615Z,100777.00
2022-09-06T04:08:31.906Z,100778.00
2022-09-06T04:11:02.679Z,100769.00
2022-09-06T04:13:31.264Z,100771.00
2022-09-06T04:15:59.618Z,100771.00
2022-09-06T04:18:27.791Z,100760.00
2022-09-06T04:20:56.514Z,100766.00
2022-09-06T04:23:26.262Z,100764.00
2022-09-06T04:25:57.928Z,100770.00
2022-09-06T04:28:27.074Z,100768.00
2022-09-06T04:31:04.000Z,100762.00
2022-09-06T04:33:33.986Z,100773.00
2022-09-06T04:36:03.178Z,100774.00
2022-09-06T04:38:35.056Z,100777.00
2022-09-06T04:41:03.234Z,100774.00
2022-09-06T04:43:31.020Z,100780.00
2022-09-06T04:46:07.723Z,100769.00
2022-09-06T04:48:35.656Z,100767.00
2022-09-06T04:51:03.537Z,100772.00
2022-09-06T04:53:31.342Z,100764.00
2022-09-06T04:55:59.648Z,100772.00
2022-09-06T04:58:27.513Z,100773.00
2022-09-06T05:00:55.686Z,100767.00
2022-09-06T05:03:26.309Z,100768.00
2022-09-06T05:06:03.440Z,100769.00
2022-09-06T05:08:31.197Z,100774.00
2022-09-06T05:10:59.120Z,100763.00
2022-09-06T05:13:26.915Z,100774.00
2022-09-06T05:15:54.931Z,100769.00
2022-09-06T05:18:22.840Z,100764.00
2022-09-06T05:20:53.771Z,100764.00
2022-09-06T05:23:22.586Z,100769.00
2022-09-06T05:25:50.717Z,100770.00
2022-09-06T05:28:19.174Z,100764.00
2022-09-06T05:30:47.456Z,100768.00
2022-09-06T05:33:19.315Z,100778.00
2022-09-06T05:35:47.389Z,100767.00
2022-09-06T05:38:15.188Z,100763.00
2022-09-06T05:40:43.146Z,100766.00
2022-09-06T05:43:11.038Z,100773.00
2022-09-06T05:45:39.543Z,100771.00
2022-09-06T05:48:07.485Z,100776.00
2022-09-06T05:50:35.902Z,100765.00
2022-09-06T05:53:16.049Z,100763.00
2022-09-06T05:55:46.713Z,100751.00
2022-09-06T05:58:14.519Z,100766.00
2022-09-06T06:00:42.903Z,100769.00
2022-09-06T06:03:10.983Z,100768.00
2022-09-06T06:05:46.405Z,100764.00
2022-09-06T06:08:14.383Z,100767.00
2022-09-06T06:10:42.376Z,100766.00
2022-09-06T06:13:10.307Z,100770.00
2022-09-06T06:15:38.405Z,100771.00
2022-09-06T06:18:06.537Z,100761.00
2022-09-06T06:20:34.305Z,100766.00
2022-09-06T06:23:02.228Z,100765.00
2022-09-06T06:25:30.327Z,100767.00
2022-09-06T06:27:58.203Z,100773.00
2022-09-06T06:30:26.163Z,100771.00
2022-09-06T06:32:53.914Z,100769.00
2022-09-06T06:35:22.025Z,100766.00
2022-09-06T06:37:49.905Z,100775.00
2022-09-06T06:40:17.903Z,100780.00
2022-09-06T06:42:45.905Z,100780.00
2022-09-06T06:45:13.920Z,100783.00
2022-09-06T06:47:41.626Z,100773.00
2022-09-06T06:50:09.928Z,100773.00
2022-09-06T06:52:37.902Z,100781.00
2022-09-06T06:55:06.946Z,100780.00
2022-09-06T06:57:34.640Z,100779.00
2022-09-06T07:00:05.125Z,100770.00
2022-09-06T07:02:33.010Z,100776.00
2022-09-06T07:05:00.987Z,100768.00
2022-09-06T07:12:49.561Z,100772.00
2022-09-06T07:15:17.639Z,100762.00
2022-09-06T07:17:45.782Z,100770.00
2022-09-06T07:20:14.533Z,100762.00
2022-09-06T07:22:43.127Z,100766.00
2022-09-06T07:25:14.436Z,100761.00
2022-09-06T07:27:48.288Z,100755.00
2022-09-06T07:30:17.268Z,100753.00
2022-09-06T07:32:45.131Z,100759.00
2022-09-06T07:35:14.252Z,100760.00
2022-09-06T07:37:42.279Z,100757.00
2022-09-06T07:40:10.740Z,100767.00
2022-09-06T07:42:38.582Z,100770.00
2022-09-06T07:45:07.048Z,100764.00
2022-09-06T07:53:15.486Z,100762.00
2022-09-06T07:55:47.267Z,100749.00
2022-09-06T07:58:15.474Z,100746.00
2022-09-06T08:00:44.156Z,100750.00
2022-09-06T08:03:12.187Z,100747.00
2022-09-06T08:11:16.309Z,100752.00
2022-09-06T08:13:44.613Z,100752.00
2022-09-06T08:16:14.181Z,100740.00
2022-09-06T08:18:42.203Z,100741.00
2022-09-06T08:21:12.696Z,100740.00
2022-09-06T08:23:51.665Z,100759.00
2022-09-06T08:26:23.130Z,100755.00
2022-09-06T08:29:10.245Z,100754.00
2022-09-06T08:31:42.799Z,100761.00
2022-09-06T08:34:12.898Z,100757.00
2022-09-06T08:36:41.381Z,100763.00
2022-09-06T08:39:10.305Z,100762.00
2022-09-06T08:41:51.421Z,100762.00
2022-09-06T08:47:13.898Z,100767.00
2022-09-06T08:50:03.887Z,100778.00
2022-09-06T08:52:54.322Z,100787.00
2022-09-06T08:55:49.266Z,100790.00
2022-09-06T08:58:34.397Z,100794.00
2022-09-06T09:01:06.699Z,100800.00
2022-09-06T09:03:39.511Z,100794.00
2022-09-06T09:06:10.432Z,100786.00
2022-09-06T09:08:48.309Z,100777.00
2022-09-06T09:11:21.461Z,100774.00
2022-09-06T09:14:20.692Z,100774.00
2022-09-06T09:16:56.145Z,100769.00
2022-09-06T09:19:23.945Z,100771.00
2022-09-06T09:21:51.771Z,100780.00
2022-09-06T09:24:19.737Z,100766.00
2022-09-06T09:27:11.412Z,100766.00
2022-09-06T09:32:46.302Z,100761.00
2022-09-06T09:35:38.860Z,100757.00
2022-09-06T09:38:12.613Z,100753.00
2022-09-06T09:40:52.438Z,100733.00
2022-09-06T09:43:28.516Z,100736.00
2022-09-06T09:46:12.629Z,100735.00
2022-09-06T09:48:41.762Z,100729.00
2022-09-06T09:51:27.480Z,100730.00
2022-09-06T09:54:02.743Z,100720.00
2022-09-06T09:56:50.083Z,100718.00
2022-09-06T09:59:27.064Z,100716.00
2022-09-06T10:02:03.201Z,100712.00
2022-09-06T10:07:10.372Z,100705.00
2022-09-06T10:09:46.934Z,100706.00
2022-09-06T10:12:29.269Z,100701.00
2022-09-06T10:14:58.003Z,100697.00
2022-09-06T10:17:34.920Z,100692.00
2022-09-06T10:20:12.955Z,100696.00
2022-09-06T10:23:05.204Z,100689.00
2022-09-06T10:25:46.360Z,100688.00
2022-09-06T10:28:31.483Z,100680.00
2022-09-06T10:31:10.835Z,100684.00
2022-09-06T10:33:47.961Z,100677.00
2022-09-06T10:36:20.045Z,100678.00
2022-09-06T10:39:20.479Z,100682.00
2022-09-06T10:41:58.837Z,100675.00
2022-09-06T10:44:57.931Z,100678.00
2022-09-06T10:47:33.049Z,100672.00
2022-09-06T10:50:02.433Z,100675.00
2022-09-06T10:52:36.118Z,100673.00
2022-09-06T10:55:05.951Z,100679.00
2022-09-06T11:00:53.942Z,100681.00
2022-09-06T11:06:26.701Z,100680.00
2022-09-06T11:09:09.929Z,100686.00
2022-09-06T11:12:06.646Z,100685.00
2022-09-06T11:14:35.406Z,100692.00
2022-09-06T11:17:41.212Z,100694.00
2022-09-06T11:20:14.272Z,100682.00
2022-09-06T11:22:48.362Z,100687.00
2022-09-06T11:25:40.006Z,100685.00
2022-09-06T11:28:11.245Z,100686.00
2022-09-06T11:30:47.387Z,100694.00
2022-09-06T11:33:35.819Z,100693.00
2022-09-06T11:36:29.447Z,100693.00
2022-09-06T11:39:00.514Z,100687.00
2022-09-06T11:41:33.638Z,100686.00
2022-09-06T11:44:02.298Z,100692.00
2022-09-06T11:46:36.251Z,100692.00
2022-09-06T11:49:05.093Z,100680.00
2022-09-06T11:51:38.540Z,100686.00
2022-09-06T11:54:09.255Z,100687.00
2022-09-06T11:56:57.842Z,100681.00
2022-09-06T11:59:43.368Z,100670.00
2022-09-06T12:02:30.105Z,100669.00
2022-09-06T12:05:07.526Z,100663.00
2022-09-06T12:07:59.606Z,100674.00
2022-09-06T12:10:51.267Z,100671.00
2022-09-06T12:13:41.183Z,100662.00
2022-09-06T12:16:12.509Z,100660.00
2022-09-06T12:18:49.834Z,100655.00
2022-09-06T12:21:46.219Z,100655.00
2022-09-06T12:24:35.545Z,100662.00
2022-09-06T12:27:22.874Z,100652.00
2022-09-06T12:29:55.167Z,100652.00
2022-09-06T12:32:41.286Z,100653.00
2022-09-06T12:38:25.352Z,100648.00
2022-09-06T12:40:58.602Z,100646.00
2022-09-06T12:43:27.401Z,100643.00
2022-09-06T12:45:55.529Z,100631.00
2022-09-06T12:48:33.533Z,100638.00
2022-09-06T12:51:03.755Z,100644.00
2022-09-06T12:53:31.899Z,100636.00
2022-09-06T12:56:09.096Z,100630.00
2022-09-06T12:58:37.505Z,100626.00
2022-09-06T13:01:16.148Z,100625.00
2022-09-06T13:03:57.303Z,100624.00
2022-09-06T13:06:27.378Z,100615.00
2022-09-06T13:08:57.456Z,100624.00
2022-09-06T13:11:32.930Z,100620.00
2022-09-06T13:14:01.281Z,100616.00
2022-09-06T13:16:41.992Z,100620.00
2022-09-06T13:19:31.534Z,100604.00
2022-09-06T13:21:59.801Z,100610.00
2022-09-06T13:24:47.965Z,100600.00
2022-09-06T13:27:35.955Z,100607.00
2022-09-06T13:30:11.370Z,100598.00
2022-09-06T13:32:48.602Z,100589.00
2022-09-06T13:35:34.826Z,100587.00
2022-09-06T13:38:34.178Z,100594.00
2022-09-06T13:41:13.587Z,100586.00
2022-09-06T13:43:45.746Z,100578.00
2022-09-06T13:46:13.758Z,100581.00
2022-09-06T13:48:43.246Z,100591.00
2022-09-06T13:51:11.526Z,100587.00
2022-09-06T13:53:39.315Z,100590.00
2022-09-06T13:56:08.902Z,100581.00
2022-09-06T13:58:37.275Z,100582.00
2022-09-06T14:01:10.047Z,100581.00
2022-09-06T14:03:40.318Z,100582.00
2022-09-06T14:06:08.449Z,100577.00
2022-09-06T14:08:56.165Z,100583.00
2022-09-06T14:11:26.006Z,100574.00
2022-09-06T14:13:53.949Z,100568.00
2022-09-06T14:16:22.174Z,100571.00
2022-09-06T14:18:50.450Z,100564.00
2022-09-06T14:21:18.371Z,100574.00
2022-09-06T14:23:52.809Z,100571.00
2022-09-06T14:26:24.495Z,100566.00
2022-09-06T14:28:52.393Z,100565.00
2022-09-06T14:31:22.698Z,100566.00
2022-09-06T14:33:50.738Z,100569.00
2022-09-06T14:36:20.812Z,100569.00
2022-09-06T14:38:49.500Z,100558.00
2022-09-06T14:41:19.147Z,100559.00
2022-09-06T14:43:55.176Z,100564.00
2022-09-06T14:46:25.188Z,100563.00
2022-09-06T14:49:07.962Z,100550.00
2022-09-06T14:51:37.964Z,100559.00
2022-09-06T14:54:09.042Z,100556.00
2022-09-06T14:56:38.812Z,100552.00
2022-09-06T14:59:07.060Z,100556.00
2022-09-06T15:01:38.550Z,100557.00
2022-09-06T15:04:09.288Z,100561.00
2022-09-06T15:06:40.050Z,100549.00
2022-09-06T15:09:08.322Z,100539.00
2022-09-06T15:11:36.078Z,100547.00
2022-09-06T15:14:05.338Z,100544.00
2022-09-06T15:16:33.718Z,100541.00
2022-09-06T15:19:05.119Z,100534.00
2022-09-06T15:21:33.420Z,100540.00
2022-09-06T15:24:02.823Z,100533.00
2022-09-06T15:26:30.773Z,100523.00
2022-09-06T15:28:58.944Z,100522.00
2022-09-06T15:31:27.570Z,100527.00
2022-09-06T15:33:55.804Z,100536.00
2022-09-06T15:36:24.316Z,100536.00
2022-09-06T15:38:54.173Z,100529.00
2022-09-06T15:41:24.569Z,100538.00
2022-09-06T15:43:55.357Z,100530.00
2022-09-06T15:46:52.173Z,100533.00
2022-09-06T15:49:32.497Z,100531.00
2022-09-06T15:52:02.785Z,100527.00
2022-09-06T15:54:48.939Z,100530.00
2022-09-06T15:57:17.713Z,100527.00
2022-09-06T15:59:46.013Z,100522.00
2022-09-06T16:02:14.305Z,100519.00
2022-09-06T16:04:42.199Z,100520.00
2022-09-06T16:07:10.347Z,100524.00
2022-09-06T16:09:38.778Z,100512.00
2022-09-06T16:12:07.211Z,100516.00
2022-09-06T16:14:35.866Z,100515.00
2022-09-06T16:17:03.637Z,100504.00
2022-09-06T16:19:31.004Z,100504.00
2022-09-06T16:21:59.250Z,100499.00
2022-09-06T16:24:27.079Z,100492.00
2022-09-06T16:26:54.759Z,100494.00
2022-09-06T16:29:22.444Z,100490.00
2022-09-06T16:31:50.034Z,100491.00
2022-09-06T16:34:17.736Z,100493.00
2022-09-06T16:36:45.239Z,100485.00
2022-09-06T16:39:12.771Z,100488.00
2022-09-06T16:41:44.053Z,100477.00
2022-09-06T16:44:16.935Z,100477.00
2022-09-06T16:46:49.476Z,100481.00
2022-09-06T16:49:19.416Z,100474.00
2022-09-06T16:51:48.880Z,100472.00
2022-09-06T16:54:18.472Z,100461.00
2022-09-06T16:56:46.258Z,100470.00
2022-09-06T16:59:15.402Z,100470.00
2022-09-06T17:01:43.690Z,100470.00
2022-09-06T17:04:12.940Z,100464.00
2022-09-06T17:06:47.200Z,100468.00
2022-09-06T17:09:20.312Z,100460.00
2022-09-06T17:11:51.304Z,100465.00
2022-09-06T17:14:19.081Z,100476.00
2022-09-06T17:17:05.140Z,100470.00
2022-09-06T17:19:39.601Z,100474.00
2022-09-06T17:22:15.967Z,100468.00
2022-09-06T17:24:44.127Z,100465.00
2022-09-06T17:27:11.927Z,100462.00
2022-09-06T17:29:40.391Z,100457.00
2022-09-06T17:32:10.504Z,100461.00
2022-09-06T17:34:41.615Z,100460.00
2022-09-06T17:37:09.539Z,100465.00
2022-09-06T17:39:37.706Z,100469.00
2022-09-06T17:42:06.289Z,100471.00
2022-09-06T17:44:34.169Z,100477.00
2022-09-06T17:47:18.910Z,100473.00
2022-09-06T17:49:47.481Z,100475.00
2022-09-06T17:52:15.384Z,100479.00
2022-09-06T17:54:46.882Z,100484.00
2022-09-06T17:57:14.630Z,100477.00
2022-09-06T17:59:42.528Z,100487.00
2022-09-06T18:02:10.392Z,100493.00
2022-09-06T18:04:38.309Z,100488.00
2022-09-06T18:07:06.151Z,100493.00
2022-09-06T18:09:34.147Z,100492.00
2022-09-06T18:12:02.220Z,100493.00
2022-09-06T18:14:30.089Z,100491.00
2022-09-06T18:16:58.049Z,100495.00
2022-09-06T18:19:29.677Z,100495.00
2022-09-06T18:21:57.913Z,100500.00
2022-09-06T18:24:25.935Z,100495.00
2022-09-06T18:26:53.851Z,100499.00
2022-09-06T18:29:21.831Z,100497.00
2022-09-06T18:31:49.893Z,100498.00
2022-09-06T18:34:18.422Z,100500.00
2022-09-06T18:36:46.472Z,100500.00
2022-09-06T18:39:14.279Z,100505.00
2022-09-06T18:42:00.269Z,100502.00
2022-09-06T18:44:32.292Z,100501.00
2022-09-06T18:47:02.312Z,100510.00
2022-09-06T18:49:31.068Z,100510.00
2022-09-06T18:51:59.478Z,100506.00
2022-09-06T18:54:27.378Z,100505.00
2022-09-06T18:56:55.466Z,100512.00
2022-09-06T18:59:23.339Z,100500.00
2022-09-06T19:01:51.363Z,100514.00
2022-09-06T19:04:19.250Z,100511.00
2022-09-06T19:06:48.851Z,100506.00
2022-09-06T19:09:18.688Z,100505.00
2022-09-06T19:11:51.451Z,100509.00
2022-09-06T19:14:19.427Z,100506.00
2022-09-06T19:16:48.822Z,100510.00
2022-09-06T19:19:16.702Z,100508.00
2022-09-06T19:21:44.672Z,100499.00
2022-09-06T19:24:15.192Z,100503.00
2022-09-06T19:26:44.380Z,100506.00
2022-09-06T19:29:15.483Z,100505.00
2022-09-06T19:31:43.665Z,100496.00
2022-09-06T19:34:12.796Z,100500.00
2022-09-06T19:36:40.704Z,100494.00
2022-09-06T19:39:12.798Z,100492.00
2022-09-06T19:41:45.358Z,100490.00
2022-09-06T19:44:14.276Z,100481.00
2022-09-06T19:46:45.687Z,100484.00
2022-09-06T19:49:16.176Z,100485.00
2022-09-06T19:51:45.428Z,100477.00
2022-09-06T19:54:15.640Z,100480.00
2022-09-06T19:56:44.446Z,100478.00
2022-09-06T19:59:13.266Z,100480.00
2022-09-06T20:01:42.997Z,100476.00
2022-09-06T20:04:12.077Z,100476.00
2022-09-06T20:06:40.353Z,100476.00
2022-09-06T20:09:10.296Z,100476.00
2022-09-06T20:11:39.031Z,100476.00
2022-09-06T20:14:07.379Z,100482.00
2022-09-06T20:16:40.649Z,100479.00
2022-09-06T20:19:12.487Z,100486.00
2022-09-06T20:21:40.420Z,100479.00
2022-09-06T20:24:08.704Z,100476.00
2022-09-06T20:26:36.781Z,100481.00
2022-09-06T20:29:05.357Z,100474.00
2022-09-06T20:31:34.586Z,100459.00
2022-09-06T20:34:04.648Z,100460.00
2022-09-06T20:36:33.353Z,100459.00
2022-09-06T20:39:02.332Z,100465.00
2022-09-06T20:41:30.372Z,100466.00
2022-09-06T20:44:00.943Z,100459.00
2022-09-06T20:46:31.745Z,100460.00
2022-09-06T20:49:03.725Z,100455.00
2022-09-06T20:51:32.160Z,100448.00
2022-09-06T20:54:01.098Z,100448.00
2022-09-06T20:56:34.150Z,100439.00
2022-09-06T20:59:04.172Z,100436.00
2022-09-06T21:01:34.953Z,100437.00
2022-09-06T21:04:05.488Z,100438.00
2022-09-06T21:06:35.778Z,100435.00
2022-09-06T21:09:11.864Z,100432.00
2022-09-06T21:11:40.205Z,100424.00
2022-09-06T21:14:08.220Z,100429.00
2022-09-06T21:16:37.042Z,100430.00
2022-09-06T21:19:06.792Z,100428.00
2022-09-06T21:21:35.163Z,100430.00
2022-09-06T21:24:05.014Z,100423.00
2022-09-06T21:26:33.200Z,100423.00
2022-09-06T21:29:03.940Z,100423.00
2022-09-06T21:31:34.771Z,100417.00
2022-09-06T21:34:05.330Z,100409.00
2022-09-06T21:36:37.795Z,100416.00
2022-09-06T21:39:07.976Z,100417.00
2022-09-06T21:41:36.983Z,100424.00
2022-09-06T21:44:06.820Z,100426.00
2022-09-06T21:46:36.849Z,100431.00
2022-09-06T21:49:07.520Z,100432.00
2022-09-06T21:51:35.702Z,100426.00
2022-09-06T21:54:05.108Z,100444.00
2022-09-06T21:56:34.439Z,100448.00
2022-09-06T21:59:02.850Z,100449.00
2022-09-06T22:01:33.032Z,100452.00
2022-09-06T22:04:02.515Z,100442.00
2022-09-06T22:06:32.046Z,100445.00
2022-09-06T22:09:02.112Z,100436.00
2022-09-06T22:11:32.491Z,100438.00
2022-09-06T22:14:02.419Z,100434.00
2022-09-06T22:16:33.912Z,100437.00
2022-09-06T22:19:01.980Z,100434.00
2022-09-06T22:21:29.766Z,100427.00
2022-09-06T22:23:59.683Z,100428.00
2022-09-06T22:26:29.292Z,100429.00
2022-09-06T22:28:59.326Z,100423.00
2022-09-06T22:31:29.151Z,100416.00
2022-09-06T22:33:57.534Z,100420.00
2022-09-06T22:36:26.387Z,100417.00
2022-09-06T22:38:58.746Z,100412.00
2022-09-06T22:41:28.225Z,100408.00
2022-09-06T22:43:56.712Z,100406.00
2022-09-06T22:46:24.634Z,100399.00
2022-09-06T22:48:52.634Z,100401.00
2022-09-06T22:51:20.513Z,100391.00
2022-09-06T22:53:48.378Z,100394.00
2022-09-06T22:56:16.369Z,100393.00
2022-09-06T22:58:44.293Z,100392.00
2022-09-06T23:01:14.455Z,100394.00
2022-09-06T23:03:42.711Z,100395.00
2022-09-06T23:06:11.232Z,100395.00
2022-09-06T23:08:40.189Z,100390.00
2022-09-06T23:11:12.085Z,100373.00
2022-09-06T23:13:43.875Z,100373.00
2022-09-06T23:16:14.548Z,100374.00
2022-09-06T23:18:42.924Z,100369.00
2022-09-06T23:21:13.588Z,100366.00
2022-09-06T23:23:41.930Z,100366.00
2022-09-06T23:26:16.585Z,100364.00
2022-09-06T23:28:45.055Z,100356.00
2022-09-06T23:31:15.101Z,100350.00
2022-09-06T23:33:42.984Z,100346.00
2022-09-06T23:36:13.893Z,100350.00
2022-09-06T23:38:42.883Z,100352.00
2022-09-06T23:41:10.946Z,100340.00
2022-09-06T23:43:41.057Z,100336.00
2022-09-06T23:46:13.743Z,100335.00
2022-09-06T23:48:43.090Z,100342.00
2022-09-06T23:51:12.483Z,100335.00
2022-09-06T23:53:40.257Z,100335.00
2022-09-06T23:56:08.397Z,100324.00
2022-09-06T23:58:36.230Z,100330.00
